createdAt,value
2022-11-28T00:01:03.773Z,3.80
2022-11-28T00:03:50.640Z,3.57
2022-11-28T00:06:39.401Z,2.70
2022-11-28T00:09:27.620Z,3.43
2022-11-28T00:12:14.549Z,5.70
2022-11-28T00:15:01.561Z,3.27
2022-11-28T00:17:48.264Z,3.87
2022-11-28T00:20:35.449Z,3.90
2022-11-28T00:23:22.351Z,5.03
2022-11-28T00:26:14.727Z,2.47
2022-11-28T00:29:02.670Z,4.00
2022-11-28T00:31:49.429Z,3.57
2022-11-28T00:34:36.744Z,3.60
2022-11-28T00:37:23.604Z,4.00
2022-11-28T00:40:11.254Z,2.43
2022-11-28T00:42:59.159Z,3.00
2022-11-28T00:45:46.080Z,4.40
2022-11-28T00:48:33.808Z,4.50
2022-11-28T00:51:23.910Z,3.47
2022-11-28T00:54:11.614Z,3.40
2022-11-28T00:56:58.556Z,3.40
2022-11-28T00:59:46.459Z,5.53
2022-11-28T01:02:33.198Z,3.40
2022-11-28T01:05:20.007Z,4.50
2022-11-28T01:08:06.727Z,3.83
2022-11-28T01:10:53.301Z,3.00
2022-11-28T01:13:41.089Z,3.77
2022-11-28T01:16:29.787Z,2.90
2022-11-28T01:19:16.370Z,5.47
2022-11-28T01:22:03.436Z,4.63
2022-11-28T01:24:50.392Z,3.63
2022-11-28T01:27:37.320Z,3.90
2022-11-28T01:30:24.403Z,2.70
2022-11-28T01:33:12.315Z,4.10
2022-11-28T01:36:01.166Z,3.37
2022-11-28T01:38:48.634Z,5.27
2022-11-28T01:41:35.614Z,4.20
2022-11-28T01:45:06.865Z,4.27
2022-11-28T01:47:59.562Z,3.27
2022-11-28T01:50:51.705Z,5.57
2022-11-28T01:53:43.752Z,2.67
2022-11-28T01:56:40.930Z,5.83
2022-11-28T01:59:33.844Z,5.07
2022-11-28T02:02:30.666Z,4.53
2022-11-28T02:05:19.986Z,4.07
2022-11-28T02:08:10.979Z,4.33
2022-11-28T02:11:27.063Z,4.63
2022-11-28T02:14:26.947Z,3.37
2022-11-28T02:17:25.451Z,3.43
2022-11-28T02:20:59.199Z,3.30
2022-11-28T02:24:33.902Z,4.67
2022-11-28T02:28:29.608Z,4.47
2022-11-28T02:31:43.923Z,2.97
2022-11-28T02:34:47.016Z,3.63
2022-11-28T02:37:44.124Z,3.80
2022-11-28T02:40:39.866Z,6.27
2022-11-28T02:43:36.313Z,2.23
2022-11-28T02:46:32.858Z,3.80
2022-11-28T02:49:27.876Z,3.17
2022-11-28T02:52:22.265Z,3.77
2022-11-28T02:55:10.537Z,3.73
2022-11-28T02:57:57.326Z,4.13
2022-11-28T03:00:48.333Z,3.83
2022-11-28T03:04:01.200Z,6.63
2022-11-28T03:07:01.240Z,3.97
2022-11-28T03:10:23.577Z,2.67
2022-11-28T03:13:26.099Z,3.17
2022-11-28T03:16:28.190Z,4.53
2022-11-28T03:19:27.023Z,2.97
2022-11-28T03:22:27.639Z,4.37
2022-11-28T03:25:26.100Z,2.43
2022-11-28T03:28:23.780Z,4.73
2022-11-28T03:31:16.815Z,4.80
2022-11-28T03:34:09.220Z,3.47
2022-11-28T03:37:02.448Z,2.87
2022-11-28T03:39:55.064Z,4.97
2022-11-28T03:42:50.532Z,5.50
2022-11-28T03:45:45.107Z,6.03
2022-11-28T03:48:38.138Z,3.03
2022-11-28T03:51:32.039Z,3.93
2022-11-28T03:54:28.994Z,3.53
2022-11-28T03:57:24.061Z,3.73
2022-11-28T04:00:15.114Z,5.00
2022-11-28T04:03:14.974Z,5.20
2022-11-28T04:06:12.875Z,5.53
2022-11-28T04:09:12.967Z,4.97
2022-11-28T04:12:11.808Z,6.60
2022-11-28T04:15:09.707Z,4.17
2022-11-28T04:18:03.843Z,5.33
2022-11-28T04:21:00.120Z,4.87
2022-11-28T04:23:50.251Z,4.33
2022-11-28T04:26:43.131Z,5.93
2022-11-28T04:29:37.126Z,4.00
2022-11-28T04:32:27.468Z,5.23
2022-11-28T04:35:23.882Z,4.03
2022-11-28T04:38:13.817Z,4.47
2022-11-28T04:41:11.625Z,4.15
2022-11-28T04:44:10.637Z,4.70
2022-11-28T04:46:58.881Z,3.93
2022-11-28T04:49:45.862Z,4.70
2022-11-28T04:52:45.744Z,5.37
2022-11-28T04:55:41.741Z,5.60
2022-11-28T04:58:36.902Z,5.63
2022-11-28T05:01:28.890Z,4.93
2022-11-28T05:04:17.182Z,4.20
2022-11-28T05:07:05.187Z,6.10
2022-11-28T05:09:55.603Z,6.70
2022-11-28T05:12:43.807Z,5.13
2022-11-28T05:15:30.483Z,3.60
2022-11-28T05:18:17.404Z,5.73
2022-11-28T05:21:08.045Z,4.17
2022-11-28T05:23:55.111Z,3.83
2022-11-28T05:28:22.480Z,4.43
2022-11-28T05:32:55.295Z,4.87
2022-11-28T05:37:22.023Z,5.30
2022-11-28T05:43:18.412Z,6.60
2022-11-28T05:46:07.908Z,4.37
2022-11-28T05:48:56.928Z,4.93
2022-11-28T05:51:44.880Z,4.77
2022-11-28T05:54:33.948Z,4.73
2022-11-28T05:57:21.113Z,3.93
2022-11-28T06:00:11.365Z,10.13
2022-11-28T06:03:01.492Z,4.97
2022-11-28T06:06:01.711Z,4.90
2022-11-28T06:09:26.797Z,5.10
2022-11-28T06:13:03.329Z,5.57
2022-11-28T06:16:20.704Z,4.90
2022-11-28T06:23:04.219Z,4.17
2022-11-28T06:26:28.248Z,5.57
2022-11-28T06:29:29.169Z,4.77
2022-11-28T06:32:31.403Z,8.10
2022-11-28T06:35:38.276Z,11.30
2022-11-28T06:38:47.355Z,9.23
2022-11-28T06:42:17.586Z,5.83
2022-11-28T06:45:30.237Z,5.37
2022-11-28T06:48:32.390Z,6.33
2022-11-28T06:54:59.988Z,5.87
2022-11-28T06:58:04.719Z,6.57
2022-11-28T07:01:17.607Z,7.63
2022-11-28T07:04:28.818Z,4.20
2022-11-28T07:07:50.243Z,3.90
2022-11-28T07:11:09.698Z,6.17
2022-11-28T07:14:05.936Z,4.77
2022-11-28T07:17:09.938Z,5.93
2022-11-28T07:20:15.587Z,5.80
2022-11-28T07:23:35.070Z,5.23
2022-11-28T07:26:32.510Z,4.37
2022-11-28T07:29:43.119Z,5.27
2022-11-28T07:32:52.711Z,4.33
2022-11-28T07:36:06.662Z,5.17
2022-11-28T07:39:15.698Z,4.43
2022-11-28T07:42:19.401Z,5.77
2022-11-28T07:46:17.303Z,3.97
2022-11-28T07:49:26.315Z,6.20
2022-11-28T07:53:25.582Z,5.37
2022-11-28T07:57:12.675Z,6.37
2022-11-28T08:03:29.274Z,3.63
2022-11-28T08:06:35.327Z,5.40
2022-11-28T08:09:55.333Z,6.23
2022-11-28T08:13:08.530Z,4.77
2022-11-28T08:16:31.139Z,5.13
2022-11-28T08:23:33.729Z,5.97
2022-11-28T08:26:50.722Z,3.63
2022-11-28T08:30:37.592Z,4.60
2022-11-28T08:38:11.985Z,4.57
2022-11-28T08:41:25.991Z,4.13
2022-11-28T08:45:03.003Z,4.90
2022-11-28T08:48:26.469Z,5.77
2022-11-28T08:58:55.518Z,3.97
2022-11-28T09:02:11.668Z,6.73
2022-11-28T09:06:11.463Z,5.53
2022-11-28T09:17:24.916Z,8.33
2022-11-28T09:24:46.304Z,4.83
2022-11-28T09:28:19.930Z,5.13
2022-11-28T09:32:18.024Z,7.53
2022-11-28T09:39:57.380Z,5.73
2022-11-28T09:43:42.754Z,4.07
2022-11-28T09:52:23.017Z,5.13
2022-11-28T09:56:12.474Z,5.17
2022-11-28T10:08:27.603Z,7.20
2022-11-28T10:12:18.465Z,5.10
2022-11-28T10:20:31.484Z,6.10
2022-11-28T10:24:17.031Z,5.03
2022-11-28T10:28:36.154Z,5.87
2022-11-28T10:32:44.064Z,5.50
2022-11-28T10:41:09.948Z,6.20
2022-11-28T10:49:16.924Z,6.63
2022-11-28T11:05:02.575Z,5.33
2022-11-28T11:13:20.965Z,5.00
2022-11-28T11:22:38.392Z,5.80
2022-11-28T11:25:29.092Z,5.40
2022-11-28T11:28:35.524Z,5.43
2022-11-28T11:31:26.571Z,6.23
2022-11-28T11:34:18.657Z,4.70
2022-11-28T11:37:30.233Z,6.77
2022-11-28T11:40:28.840Z,4.73
2022-11-28T11:43:27.830Z,6.40
2022-11-28T11:46:17.122Z,5.40
2022-11-28T11:49:03.785Z,6.97
2022-11-28T11:51:57.986Z,7.77
2022-11-28T11:54:59.250Z,6.18
2022-11-28T11:57:53.711Z,5.63
2022-11-28T12:00:42.152Z,6.43
2022-11-28T12:03:38.949Z,5.00
2022-11-28T12:06:31.526Z,5.27
2022-11-28T12:09:28.834Z,5.80
2022-11-28T12:12:23.437Z,6.63
2022-11-28T12:15:21.970Z,5.10
2022-11-28T12:18:27.695Z,6.00
2022-11-28T12:21:19.209Z,7.03
2022-11-28T12:24:13.175Z,6.40
2022-11-28T12:27:10.748Z,4.57
2022-11-28T12:30:22.387Z,5.13
2022-11-28T12:33:30.206Z,5.27
2022-11-28T12:36:27.836Z,6.27
2022-11-28T12:39:22.807Z,6.78
2022-11-28T12:42:30.413Z,5.70
2022-11-28T12:45:43.808Z,6.30
2022-11-28T12:48:53.604Z,8.63
2022-11-28T12:51:58.358Z,5.85
2022-11-28T12:55:12.452Z,9.77
2022-11-28T12:58:10.286Z,5.27
2022-11-28T13:01:14.952Z,5.80
2022-11-28T13:04:15.469Z,6.30
2022-11-28T13:07:13.893Z,4.57
2022-11-28T13:10:16.126Z,5.88
2022-11-28T13:13:09.868Z,7.30
2022-11-28T13:16:13.086Z,6.83
2022-11-28T13:19:12.001Z,5.70
2022-11-28T13:22:11.763Z,7.20
2022-11-28T13:25:10.793Z,4.95
2022-11-28T13:28:08.843Z,4.30
2022-11-28T13:31:06.769Z,4.70
2022-11-28T13:33:55.626Z,6.73
2022-11-28T13:40:08.889Z,5.03
2022-11-28T13:43:07.678Z,5.47
2022-11-28T13:45:55.977Z,5.68
2022-11-28T13:49:15.564Z,5.80
2022-11-28T13:52:42.957Z,8.37
2022-11-28T13:55:44.601Z,5.68
2022-11-28T13:58:42.427Z,6.57
2022-11-28T14:01:31.475Z,5.80
2022-11-28T14:04:20.356Z,7.63
2022-11-28T14:07:08.736Z,5.33
2022-11-28T14:10:16.227Z,6.47
2022-11-28T14:13:23.989Z,5.43
2022-11-28T14:16:27.048Z,5.53
2022-11-28T14:19:29.516Z,6.50
2022-11-28T14:22:34.640Z,6.47
2022-11-28T14:25:28.553Z,10.07
2022-11-28T14:28:25.130Z,5.90
2022-11-28T14:31:31.684Z,8.77
2022-11-28T14:34:42.593Z,7.40
2022-11-28T14:37:57.562Z,5.77
2022-11-28T14:41:11.757Z,6.22
2022-11-28T14:44:50.630Z,6.20
2022-11-28T14:47:42.433Z,9.07
2022-11-28T14:50:59.345Z,6.10
2022-11-28T14:53:50.576Z,6.60
2022-11-28T14:56:37.212Z,7.83
2022-11-28T14:59:33.864Z,6.77
2022-11-28T15:03:02.924Z,7.03
2022-11-28T15:05:53.317Z,8.77
2022-11-28T15:09:03.468Z,7.35
2022-11-28T15:12:12.336Z,6.07
2022-11-28T15:14:59.403Z,8.50
2022-11-28T15:17:53.470Z,6.70
2022-11-28T15:20:48.415Z,6.15
2022-11-28T15:23:38.670Z,6.77
2022-11-28T15:26:30.923Z,7.43
2022-11-28T15:29:22.489Z,7.22
2022-11-28T15:32:16.401Z,6.60
2022-11-28T15:35:12.542Z,8.73
2022-11-28T15:38:00.227Z,6.20
2022-11-28T15:40:52.564Z,9.00
2022-11-28T15:43:44.901Z,5.17
2022-11-28T15:46:35.118Z,6.60
2022-11-28T15:49:30.205Z,8.20
2022-11-28T15:52:19.085Z,5.75
2022-11-28T15:55:17.176Z,7.50
2022-11-28T15:58:23.335Z,7.20
2022-11-28T16:01:18.546Z,8.20
2022-11-28T16:04:11.984Z,6.90
2022-11-28T16:07:01.993Z,5.20
2022-11-28T16:10:03.476Z,7.60
2022-11-28T16:12:50.684Z,8.10
2022-11-28T16:15:38.835Z,7.47
2022-11-28T16:18:28.564Z,7.30
2022-11-28T16:21:15.704Z,5.97
2022-11-28T16:24:04.147Z,4.87
2022-11-28T16:27:01.079Z,7.00
2022-11-28T16:29:50.368Z,6.25
2022-11-28T16:32:40.129Z,7.53
2022-11-28T16:35:31.940Z,5.50
2022-11-28T16:38:25.446Z,7.37
2022-11-28T16:41:23.958Z,8.07
2022-11-28T16:44:17.918Z,5.30
2022-11-28T16:47:08.747Z,6.93
2022-11-28T16:50:24.717Z,5.20
2022-11-28T16:53:44.795Z,6.13
2022-11-28T16:56:44.935Z,7.90
2022-11-28T16:59:32.819Z,6.17
2022-11-28T17:02:23.144Z,5.73
2022-11-28T17:05:10.855Z,7.63
2022-11-28T17:07:57.654Z,10.30
2022-11-28T17:10:44.209Z,6.75
2022-11-28T17:13:31.269Z,8.45
2022-11-28T17:16:23.203Z,6.63
2022-11-28T17:19:10.034Z,8.32
2022-11-28T17:22:01.195Z,8.93
2022-11-28T17:24:49.575Z,5.00
2022-11-28T17:27:36.444Z,8.80
2022-11-28T17:30:23.706Z,5.57
2022-11-28T17:33:16.400Z,7.63
2022-11-28T17:36:04.718Z,7.85
2022-11-28T17:38:51.299Z,6.47
2022-11-28T17:41:38.042Z,7.57
2022-11-28T17:44:27.443Z,6.43
2022-11-28T17:47:14.081Z,5.85
2022-11-28T17:50:01.878Z,8.20
2022-11-28T17:52:48.674Z,6.88
2022-11-28T17:55:35.078Z,5.73
2022-11-28T17:58:24.346Z,7.80
2022-11-28T18:01:12.581Z,7.80
2022-11-28T18:03:59.828Z,6.28
2022-11-28T18:06:48.759Z,8.38
2022-11-28T18:09:40.733Z,6.85
2022-11-28T18:12:27.670Z,7.88
2022-11-28T18:15:14.320Z,5.30
2022-11-28T18:18:01.175Z,7.22
2022-11-28T18:20:48.233Z,8.63
2022-11-28T18:23:38.456Z,6.23
2022-11-28T18:26:27.029Z,5.95
2022-11-28T18:29:13.917Z,7.47
2022-11-28T18:32:00.699Z,7.90
2022-11-28T18:34:48.338Z,9.20
2022-11-28T18:37:35.120Z,5.57
2022-11-28T18:40:23.491Z,7.45
2022-11-28T18:43:10.403Z,8.87
2022-11-28T18:45:56.904Z,8.27
2022-11-28T18:48:46.521Z,7.20
2022-11-28T18:51:35.515Z,7.60
2022-11-28T18:54:22.187Z,7.57
2022-11-28T18:57:10.480Z,6.90
2022-11-28T18:59:57.547Z,7.80
2022-11-28T19:02:44.586Z,9.10
2022-11-28T19:05:36.400Z,8.43
2022-11-28T19:08:25.759Z,9.63
2022-11-28T19:11:15.562Z,7.00
2022-11-28T19:14:04.092Z,9.37
2022-11-28T19:16:53.539Z,9.23
2022-11-28T19:19:41.321Z,10.17
2022-11-28T19:22:31.469Z,10.70
2022-11-28T19:25:18.370Z,9.10
2022-11-28T19:28:06.043Z,7.00
2022-11-28T19:30:54.186Z,9.45
2022-11-28T19:33:40.655Z,8.15
2022-11-28T19:36:28.699Z,14.40
2022-11-28T19:39:18.627Z,8.80
2022-11-28T19:42:05.644Z,8.95
2022-11-28T19:44:52.268Z,11.15
2022-11-28T19:47:40.425Z,9.30
2022-11-28T19:50:27.013Z,11.17
2022-11-28T19:53:13.406Z,7.60
2022-11-28T19:56:04.805Z,8.10
2022-11-28T19:58:51.788Z,7.78
2022-11-28T20:01:39.957Z,7.95
2022-11-28T20:04:27.855Z,7.35
2022-11-28T20:07:14.737Z,9.27
2022-11-28T20:10:01.514Z,9.93
2022-11-28T20:12:48.484Z,10.83
2022-11-28T20:15:36.462Z,13.50
2022-11-28T20:18:22.989Z,8.43
2022-11-28T20:21:15.449Z,9.67
2022-11-28T20:24:08.131Z,6.00
2022-11-28T20:26:56.775Z,7.50
2022-11-28T20:29:43.763Z,8.05
2022-11-28T20:32:31.117Z,8.13
2022-11-28T20:35:19.061Z,9.77
2022-11-28T20:38:07.173Z,9.30
2022-11-28T20:41:01.842Z,9.60
2022-11-28T20:43:49.408Z,7.90
2022-11-28T20:46:54.384Z,11.00
2022-11-28T20:49:41.309Z,6.87
2022-11-28T20:52:28.138Z,7.77
2022-11-28T20:55:17.642Z,6.57
2022-11-28T20:58:04.321Z,9.53
2022-11-28T21:00:51.174Z,9.52
2022-11-28T21:03:37.800Z,10.07
2022-11-28T21:06:24.306Z,8.73
2022-11-28T21:09:12.640Z,6.88
2022-11-28T21:12:00.553Z,10.27
2022-11-28T21:14:47.074Z,10.30
2022-11-28T21:17:34.123Z,8.07
2022-11-28T21:20:20.968Z,10.40
2022-11-28T21:23:07.843Z,9.10
2022-11-28T21:25:54.486Z,8.55
2022-11-28T21:28:44.739Z,11.10
2022-11-28T21:31:34.637Z,9.47
2022-11-28T21:34:22.283Z,12.15
2022-11-28T21:37:08.877Z,6.57
2022-11-28T21:39:55.801Z,7.07
2022-11-28T21:42:42.561Z,8.40
2022-11-28T21:45:30.424Z,11.20
2022-11-28T21:48:17.127Z,8.37
2022-11-28T21:51:05.514Z,7.27
2022-11-28T21:53:52.698Z,10.10
2022-11-28T21:56:39.596Z,8.83
2022-11-28T21:59:26.319Z,6.90
2022-11-28T22:02:16.157Z,8.60
2022-11-28T22:05:02.617Z,11.50
2022-11-28T22:07:49.347Z,12.33
2022-11-28T22:10:38.145Z,9.90
2022-11-28T22:13:24.647Z,11.20
2022-11-28T22:16:14.863Z,11.03
2022-11-28T22:19:02.844Z,8.77
2022-11-28T22:21:52.417Z,7.87
2022-11-28T22:24:41.186Z,13.80
2022-11-28T22:27:32.791Z,16.20
2022-11-28T22:30:19.448Z,8.88
2022-11-28T22:33:06.066Z,8.57
2022-11-28T22:35:53.835Z,8.07
2022-11-28T22:38:41.324Z,9.77
2022-11-28T22:41:29.790Z,16.13
2022-11-28T22:44:16.590Z,12.93
2022-11-28T22:47:03.361Z,12.85
2022-11-28T22:49:49.844Z,9.43
2022-11-28T22:52:38.223Z,9.93
2022-11-28T22:55:24.764Z,7.85
2022-11-28T22:58:11.600Z,11.40
2022-11-28T23:00:58.349Z,10.18
2022-11-28T23:03:45.916Z,13.82
2022-11-28T23:06:35.281Z,6.82
2022-11-28T23:09:23.299Z,12.75
2022-11-28T23:12:09.976Z,9.77
2022-11-28T23:14:56.575Z,8.90
2022-11-28T23:17:43.208Z,10.80
2022-11-28T23:20:29.916Z,12.05
2022-11-28T23:23:16.301Z,8.82
2022-11-28T23:26:10.147Z,8.93
2022-11-28T23:28:59.683Z,8.70
2022-11-28T23:31:48.045Z,8.45
2022-11-28T23:34:34.521Z,9.55
2022-11-28T23:37:21.052Z,8.43
2022-11-28T23:40:09.477Z,8.00
2022-11-28T23:42:57.163Z,7.50
2022-11-28T23:45:43.913Z,7.50
2022-11-28T23:48:30.727Z,9.80
2022-11-28T23:51:22.292Z,9.88
2022-11-28T23:54:10.428Z,8.20
2022-11-28T23:56:56.788Z,9.27
2022-11-28T23:59:44.717Z,10.07
